Time;durP1;ratioP1;P1;durP2;ratioP2;P2;SDS_P1;SDS_P2;PMS_P1;PMS_P2;Temp;Humidity;BMP_temperature;BMP_pressure;BME280_temperature;BME280_humidity;BME280_pressure;Samples;Min_cycle;Max_cycle;Signal;HPM_P1;HPM_P2
2021/08/29 00:01:25;;;;;;;4.72;4.32;;;19.60;98.20;;;;;;5097059;28;20107;-74
2021/08/29 00:03:50;;;;;;;4.00;3.53;;;19.60;98.50;;;;;;5112317;28;20032;-74
2021/08/29 00:06:16;;;;;;;4.07;3.55;;;19.60;98.70;;;;;;5112249;28;20035;-75
2021/08/29 00:08:42;;;;;;;4.80;3.90;;;19.50;98.90;;;;;;5096462;28;20059;-75
2021/08/29 00:11:07;;;;;;;4.78;3.70;;;19.60;99.00;;;;;;5078496;28;20022;-75
2021/08/29 00:13:33;;;;;;;6.00;3.40;;;19.60;99.00;;;;;;5096649;28;20047;-75
2021/08/29 00:16:00;;;;;;;3.88;3.58;;;19.60;99.10;;;;;;5096283;28;20020;-75
2021/08/29 00:18:25;;;;;;;4.30;3.90;;;19.50;99.10;;;;;;5096337;28;20382;-75
2021/08/29 00:20:51;;;;;;;4.10;3.70;;;19.50;99.10;;;;;;5096447;28;20035;-75
2021/08/29 00:23:17;;;;;;;4.15;3.40;;;19.50;99.00;;;;;;5111941;28;20059;-75
2021/08/29 00:25:42;;;;;;;4.35;3.60;;;19.50;99.00;;;;;;5078326;28;20024;-74
2021/08/29 00:28:08;;;;;;;3.97;3.67;;;19.50;99.00;;;;;;5111891;28;20024;-75
2021/08/29 00:30:34;;;;;;;4.65;3.70;;;19.40;99.10;;;;;;5096568;28;20020;-77
2021/08/29 00:33:00;;;;;;;4.85;3.63;;;19.50;99.20;;;;;;5078521;28;20020;-77
2021/08/29 00:35:25;;;;;;;4.07;3.67;;;19.40;99.20;;;;;;5095714;28;20024;-75
2021/08/29 00:37:51;;;;;;;3.90;3.58;;;19.50;99.20;;;;;;5111815;28;20024;-76
2021/08/29 00:40:20;;;;;;;5.93;3.83;;;19.40;99.20;;;;;;5078000;28;20032;-76
2021/08/29 00:42:47;;;;;;;3.80;3.50;;;19.40;99.10;;;;;;5096456;28;20092;-76
2021/08/29 00:45:14;;;;;;;4.70;3.42;;;19.30;99.10;;;;;;5077937;28;20035;-77
2021/08/29 00:47:40;;;;;;;3.80;3.50;;;19.40;99.10;;;;;;5077731;28;20032;-77
2021/08/29 00:50:06;;;;;;;4.65;3.70;;;19.30;99.10;;;;;;5111543;28;20099;-76
2021/08/29 00:52:39;;;;;;;4.93;3.67;;;19.30;99.20;;;;;;5095783;28;20021;-76
2021/08/29 00:55:06;;;;;;;3.80;3.40;;;19.30;99.20;;;;;;5077750;28;20024;-76
2021/08/29 00:57:31;;;;;;;4.82;3.60;;;19.30;99.60;;;;;;5095570;28;20032;-77
2021/08/29 00:59:57;;;;;;;3.63;3.33;;;19.30;99.40;;;;;;5111968;28;20050;-76
2021/08/29 01:02:25;;;;;;;4.15;3.28;;;19.30;99.30;;;;;;5095741;28;20124;-76
2021/08/29 01:05:03;;;;;;;3.65;3.35;;;19.20;99.30;;;;;;5095593;28;20020;-76
2021/08/29 01:07:49;;;;;;;4.18;3.78;;;19.20;99.30;;;;;;5077360;28;20073;-76
2021/08/29 01:10:40;;;;;;;3.70;3.40;;;19.20;99.40;;;;;;5095717;28;20023;-75
2021/08/29 01:13:10;;;;;;;4.30;3.50;;;19.20;99.40;;;;;;5084068;28;20036;-75
2021/08/29 01:15:37;;;;;;;4.03;3.63;;;19.20;99.50;;;;;;5095842;28;20524;-76
2021/08/29 01:18:03;;;;;;;4.30;3.45;;;19.20;99.60;;;;;;5077085;28;20113;-78
2021/08/29 01:20:41;;;;;;;5.85;3.60;;;19.10;99.60;;;;;;5095599;28;20106;-76
2021/08/29 01:23:09;;;;;;;3.90;3.47;;;19.10;99.70;;;;;;5095144;28;20039;-76
2021/08/29 01:25:39;;;;;;;4.13;3.30;;;19.10;99.90;;;;;;5095255;28;20032;-75
2021/08/29 01:28:15;;;;;;;;;;;19.10;99.90;;;;;;5077275;28;20024;-74
2021/08/29 01:30:43;;;;;;;3.60;3.30;;;19.00;99.80;;;;;;5076794;28;19911;-75
2021/08/29 01:33:09;;;;;;;4.13;3.35;;;19.00;99.90;;;;;;5095372;28;20074;-75
2021/08/29 01:35:37;;;;;;;3.95;3.13;;;19.00;99.90;;;;;;5095364;28;20455;-75
2021/08/29 01:38:05;;;;;;;4.05;3.38;;;19.00;99.90;;;;;;5095441;28;20430;-75
2021/08/29 01:40:31;;;;;;;4.82;3.60;;;19.00;99.90;;;;;;5076703;28;20031;-74
2021/08/29 01:42:59;;;;;;;3.15;2.88;;;19.10;99.90;;;;;;5094835;28;20347;-76
2021/08/29 01:45:25;;;;;;;3.25;2.92;;;19.10;99.80;;;;;;5095107;28;20020;-75
2021/08/29 01:47:55;;;;;;;3.22;3.00;;;19.10;99.50;;;;;;5094642;28;20118;-75
2021/08/29 01:50:21;;;;;;;5.25;3.28;;;19.10;99.10;;;;;;5094545;28;20024;-75
2021/08/29 01:52:46;;;;;;;3.20;2.83;;;19.10;98.90;;;;;;5094375;28;20157;-74
2021/08/29 01:55:12;;;;;;;3.40;3.20;;;19.10;98.90;;;;;;5076903;28;20447;-74
2021/08/29 01:57:37;;;;;;;3.70;3.30;;;19.10;98.70;;;;;;5094027;28;20448;-73
2021/08/29 02:00:04;;;;;;;3.63;3.28;;;19.10;98.80;;;;;;5094418;28;20413;-74
2021/08/29 02:02:29;;;;;;;3.63;3.33;;;19.00;98.80;;;;;;5094866;28;20020;-74
2021/08/29 02:04:55;;;;;;;5.35;3.45;;;19.10;99.10;;;;;;5094579;28;20141;-75
2021/08/29 02:07:32;;;;;;;3.50;3.20;;;19.00;99.20;;;;;;5094588;28;20020;-73
2021/08/29 02:10:10;;;;;;;3.47;3.17;;;19.00;99.30;;;;;;5075971;28;20027;-74
2021/08/29 02:12:47;;;;;;;3.97;3.40;;;19.00;99.30;;;;;;5094588;28;20036;-73
2021/08/29 02:15:20;;;;;;;4.57;3.58;;;19.00;99.40;;;;;;5076027;28;20026;-73
2021/08/29 02:17:48;;;;;;;3.75;3.28;;;19.00;99.50;;;;;;5076003;28;20016;-74
2021/08/29 02:20:19;;;;;;;4.10;3.10;;;19.00;99.60;;;;;;5094063;28;20024;-73
2021/08/29 02:22:45;;;;;;;3.90;3.10;;;18.90;99.70;;;;;;5094071;28;20024;-74
2021/08/29 02:25:11;;;;;;;3.80;3.05;;;19.00;99.80;;;;;;5093950;28;20016;-73
2021/08/29 02:27:38;;;;;;;3.83;3.50;;;19.00;99.90;;;;;;5094466;28;20458;-73
2021/08/29 02:30:07;;;;;;;3.47;3.17;;;19.00;99.90;;;;;;5093904;28;20474;-74
2021/08/29 02:32:38;;;;;;;3.20;3.00;;;19.00;99.90;;;;;;5093784;28;20020;-74
2021/08/29 02:35:04;;;;;;;;;;;19.00;99.80;;;;;;5094384;28;20058;-74
2021/08/29 02:37:31;;;;;;;3.70;3.40;;;19.00;99.80;;;;;;5093780;28;19911;-74
2021/08/29 02:39:58;;;;;;;3.67;3.10;;;19.00;99.70;;;;;;5075826;28;20024;-74
2021/08/29 02:42:27;;;;;;;4.65;3.05;;;19.00;99.80;;;;;;5076186;28;20035;-74
2021/08/29 02:44:54;;;;;;;3.40;3.10;;;19.10;99.80;;;;;;5093766;28;20488;-74
2021/08/29 02:47:20;;;;;;;3.50;3.20;;;19.10;99.80;;;;;;5075829;28;20028;-74
2021/08/29 02:49:48;;;;;;;3.58;3.10;;;19.10;99.70;;;;;;5075917;28;20016;-75
2021/08/29 02:52:17;;;;;;;3.80;3.50;;;19.10;99.60;;;;;;5093999;28;20095;-74
2021/08/29 02:54:44;;;;;;;5.00;3.70;;;19.10;99.50;;;;;;5076181;28;20463;-74
2021/08/29 02:57:12;;;;;;;3.50;3.20;;;19.10;99.40;;;;;;5093472;28;20471;-75
2021/08/29 02:59:38;;;;;;;3.40;3.10;;;19.10;99.40;;;;;;5093401;28;20123;-74
2021/08/29 03:02:11;;;;;;;3.55;3.25;;;19.10;99.30;;;;;;5075569;28;20433;-74
2021/08/29 03:04:38;;;;;;;4.93;3.20;;;19.10;99.40;;;;;;5093651;28;20052;-74
2021/08/29 03:07:04;;;;;;;3.33;3.03;;;19.00;99.40;;;;;;5093840;28;20474;-74
2021/08/29 03:09:33;;;;;;;5.13;3.60;;;19.00;99.50;;;;;;5076470;28;20063;-74
2021/08/29 03:12:04;;;;;;;4.65;3.40;;;19.00;99.50;;;;;;5097558;28;20023;-75
2021/08/29 03:14:32;;;;;;;4.50;3.53;;;19.00;99.60;;;;;;5097784;28;20418;-74
2021/08/29 03:16:58;;;;;;;3.83;3.30;;;19.00;99.60;;;;;;5079900;28;20392;-75
2021/08/29 03:19:25;;;;;;;4.00;3.53;;;19.00;99.60;;;;;;5097889;28;20133;-74
2021/08/29 03:21:51;;;;;;;4.47;3.50;;;18.90;99.60;;;;;;5079740;28;20123;-75
2021/08/29 03:24:17;;;;;;;3.42;3.13;;;18.90;99.70;;;;;;5097373;28;20028;-75
2021/08/29 03:26:43;;;;;;;3.88;3.47;;;19.00;99.90;;;;;;5097705;28;20020;-74
2021/08/29 03:29:09;;;;;;;3.22;2.92;;;19.00;99.90;;;;;;5113344;28;20028;-74
2021/08/29 03:31:35;;;;;;;3.42;3.00;;;19.00;99.90;;;;;;5097789;28;20035;-74
2021/08/29 03:34:01;;;;;;;3.30;3.00;;;19.00;99.90;;;;;;5079430;28;20017;-74
2021/08/29 03:36:30;;;;;;;3.70;3.22;;;19.00;99.90;;;;;;5113147;28;20020;-75
2021/08/29 03:38:57;;;;;;;3.83;3.53;;;19.10;99.90;;;;;;5079033;28;20024;-75
2021/08/29 03:41:23;;;;;;;6.32;3.83;;;19.10;99.90;;;;;;5079387;28;20028;-75
2021/08/29 03:43:49;;;;;;;3.80;3.03;;;19.20;99.90;;;;;;5096627;28;20024;-75
2021/08/29 03:46:16;;;;;;;3.85;3.47;;;19.30;99.90;;;;;;5079046;28;20535;-75
2021/08/29 03:48:42;;;;;;;5.95;3.67;;;19.40;99.90;;;;;;5079261;28;20066;-75
2021/08/29 03:51:09;;;;;;;3.80;3.47;;;19.50;99.70;;;;;;5096778;28;20490;-74
2021/08/29 03:53:35;;;;;;;3.80;3.33;;;19.60;99.60;;;;;;5112520;28;20056;-75
2021/08/29 03:56:01;;;;;;;4.35;3.65;;;19.70;99.40;;;;;;5096880;28;20046;-75
2021/08/29 03:58:27;;;;;;;4.30;3.90;;;19.80;99.10;;;;;;5112483;28;20047;-74
2021/08/29 04:00:53;;;;;;;3.38;3.13;;;19.80;98.90;;;;;;5096655;28;20497;-75
2021/08/29 04:03:19;;;;;;;4.22;3.65;;;19.80;98.80;;;;;;5096686;28;20028;-74
2021/08/29 04:05:45;;;;;;;4.00;3.67;;;19.80;98.80;;;;;;5078307;28;20028;-74
2021/08/29 04:08:12;;;;;;;5.82;4.25;;;19.80;98.90;;;;;;5096993;28;20027;-74
2021/08/29 04:10:43;;;;;;;4.43;3.75;;;20.00;98.80;;;;;;5096731;28;20028;-74
2021/08/29 04:13:09;;;;;;;3.78;3.47;;;20.00;98.90;;;;;;5078210;28;20477;-75
2021/08/29 04:15:37;;;;;;;6.30;4.22;;;20.00;98.90;;;;;;5096517;28;20025;-75
2021/08/29 04:18:06;;;;;;;4.60;3.65;;;20.00;98.70;;;;;;5096919;28;20504;-75
2021/08/29 04:20:32;;;;;;;5.43;3.70;;;20.10;98.60;;;;;;5096286;28;20032;-74
2021/08/29 04:22:58;;;;;;;4.65;3.90;;;20.00;98.70;;;;;;5111826;28;20024;-75
2021/08/29 04:25:24;;;;;;;4.53;4.13;;;20.10;98.50;;;;;;5096162;28;20020;-76
2021/08/29 04:27:50;;;;;;;4.43;3.80;;;20.10;98.40;;;;;;5096226;28;20032;-75
2021/08/29 04:30:16;;;;;;;4.97;3.90;;;20.10;98.40;;;;;;5077975;28;20112;-75
2021/08/29 04:32:45;;;;;;;5.05;4.15;;;20.10;98.40;;;;;;5078144;28;20044;-78
2021/08/29 04:35:11;;;;;;;6.10;3.85;;;20.10;98.20;;;;;;5078106;28;20024;-74
2021/08/29 04:37:36;;;;;;;4.80;4.30;;;20.10;98.30;;;;;;5095762;28;20031;-75
2021/08/29 04:40:02;;;;;;;4.45;4.05;;;20.10;98.30;;;;;;5095861;28;20027;-73
2021/08/29 04:42:28;;;;;;;4.15;3.75;;;20.00;98.30;;;;;;5077339;28;20595;-73
2021/08/29 04:44:54;;;;;;;4.28;3.88;;;20.00;98.50;;;;;;5077685;28;20032;-76
2021/08/29 04:47:19;;;;;;;4.47;4.07;;;20.00;98.70;;;;;;5095549;28;20359;-75
2021/08/29 04:49:45;;;;;;;6.00;4.30;;;20.00;98.70;;;;;;5111179;28;20366;-77
2021/08/29 04:52:10;;;;;;;4.53;4.07;;;20.00;98.70;;;;;;5111185;28;20466;-74
2021/08/29 04:54:36;;;;;;;4.75;4.10;;;20.00;98.70;;;;;;5077479;28;20024;-74
2021/08/29 04:57:02;;;;;;;4.57;4.18;;;20.00;98.80;;;;;;5077320;28;20020;-74
2021/08/29 04:59:27;;;;;;;4.65;4.20;;;20.10;98.80;;;;;;5107770;28;20055;-73
2021/08/29 05:01:53;;;;;;;7.00;4.45;;;20.20;98.80;;;;;;5075244;28;20113;-74
2021/08/29 05:04:19;;;;;;;6.57;4.38;;;20.20;98.70;;;;;;5108371;28;20054;-79
2021/08/29 05:06:45;;;;;;;5.32;4.82;;;20.20;98.70;;;;;;5108458;28;20021;-74
2021/08/29 05:09:10;;;;;;;4.63;4.22;;;20.30;98.70;;;;;;5074902;28;20033;-74
2021/08/29 05:11:36;;;;;;;5.05;4.55;;;20.30;98.80;;;;;;5105868;28;20025;-74
2021/08/29 05:14:02;;;;;;;4.90;4.40;;;20.40;98.80;;;;;;5072960;28;20451;-74
2021/08/29 05:16:28;;;;;;;7.18;4.85;;;20.50;98.60;;;;;;5073621;28;20024;-74
2021/08/29 05:18:53;;;;;;;4.90;4.50;;;20.60;98.40;;;;;;5074415;28;20024;-73
2021/08/29 05:21:19;;;;;;;5.65;5.10;;;20.70;98.20;;;;;;5074693;28;20375;-74
2021/08/29 05:23:45;;;;;;;7.18;5.63;;;20.80;98.20;;;;;;5073408;28;20074;-74
2021/08/29 05:26:10;;;;;;;7.47;5.07;;;20.90;98.00;;;;;;5074784;28;20478;-75
2021/08/29 05:28:36;;;;;;;5.10;4.60;;;20.90;97.70;;;;;;5074234;28;20063;-76
2021/08/29 05:31:01;;;;;;;7.47;5.13;;;20.90;97.70;;;;;;5074212;28;20467;-75
2021/08/29 05:33:27;;;;;;;6.13;5.38;;;21.00;97.50;;;;;;5073144;28;20021;-75
2021/08/29 05:35:53;;;;;;;6.07;4.70;;;21.00;97.60;;;;;;5106955;28;20020;-75
2021/08/29 05:38:18;;;;;;;5.57;4.72;;;21.00;97.70;;;;;;5074400;28;20020;-75
2021/08/29 05:40:44;;;;;;;4.72;4.32;;;21.10;97.80;;;;;;5074207;28;20048;-75
2021/08/29 05:43:10;;;;;;;5.43;4.93;;;21.10;97.80;;;;;;5106914;28;20038;-74
2021/08/29 05:45:36;;;;;;;5.93;5.32;;;21.10;97.90;;;;;;5074148;28;20020;-75
2021/08/29 05:48:01;;;;;;;6.45;4.70;;;21.20;97.70;;;;;;5073852;28;20520;-75
2021/08/29 05:50:27;;;;;;;5.45;4.95;;;21.20;97.70;;;;;;5074007;28;20024;-74
2021/08/29 05:52:53;;;;;;;5.28;4.78;;;21.30;97.60;;;;;;5074012;28;20025;-74
2021/08/29 05:55:18;;;;;;;5.53;5.03;;;21.40;97.60;;;;;;5072566;28;20024;-74
2021/08/29 05:57:44;;;;;;;6.85;5.30;;;21.40;97.50;;;;;;5106673;28;20052;-74
2021/08/29 06:00:11;;;;;;;8.30;5.95;;;21.40;97.50;;;;;;5072339;28;20120;-74
2021/08/29 06:02:36;;;;;;;13.00;10.10;;;21.50;97.40;;;;;;5073538;28;20472;-75
2021/08/29 06:05:02;;;;;;;10.93;9.35;;;21.50;97.60;;;;;;5073757;28;20104;-75
2021/08/29 06:07:28;;;;;;;8.38;7.18;;;21.60;97.50;;;;;;5073765;28;20032;-76
2021/08/29 06:09:54;;;;;;;6.60;5.93;;;21.60;97.50;;;;;;5106388;28;20074;-75
2021/08/29 06:12:19;;;;;;;7.13;5.93;;;21.70;97.30;;;;;;5106192;28;20028;-75
2021/08/29 06:14:45;;;;;;;6.35;5.75;;;21.70;97.30;;;;;;5073918;28;20032;-74
2021/08/29 06:17:10;;;;;;;8.45;5.95;;;21.70;97.30;;;;;;5073252;28;20017;-74
2021/08/29 06:19:36;;;;;;;5.90;5.30;;;21.70;97.60;;;;;;5072240;28;20027;-74
2021/08/29 06:22:02;;;;;;;6.38;5.78;;;21.70;97.40;;;;;;5073709;28;20032;-74
2021/08/29 06:24:28;;;;;;;5.93;5.30;;;21.80;97.40;;;;;;5072355;28;20036;-75
2021/08/29 06:26:54;;;;;;;6.15;5.60;;;21.80;97.40;;;;;;5072288;28;20099;-74
2021/08/29 06:29:20;;;;;;;6.25;5.60;;;21.90;97.30;;;;;;5073295;28;20054;-78
2021/08/29 17:34:05;;;;;;;17.88;11.55;;;24.70;98.20;;;;;;5070600;28;20774;-78
2021/08/29 17:36:32;;;;;;;30.60;24.33;;;24.40;98.90;;;;;;5070555;28;20033;-76
2021/08/29 17:38:58;;;;;;;22.20;18.67;;;24.40;99.30;;;;;;5069227;28;20485;-76
2021/08/29 17:41:24;;;;;;;18.05;14.38;;;24.50;99.50;;;;;;5070220;28;20115;-76
2021/08/29 17:43:50;;;;;;;17.85;12.40;;;24.50;99.60;;;;;;5070655;28;20025;-76
2021/08/29 17:46:16;;;;;;;23.48;17.80;;;24.60;99.70;;;;;;5070796;28;20079;-77
2021/08/29 17:48:43;;;;;;;26.95;18.40;;;24.70;99.70;;;;;;5070478;28;20404;-77
2021/08/29 17:51:08;;;;;;;18.30;13.50;;;24.70;99.70;;;;;;5067671;28;20032;-76
2021/08/29 17:53:34;;;;;;;15.85;11.50;;;24.80;99.80;;;;;;5069111;28;20028;-78
2021/08/29 17:56:00;;;;;;;16.67;11.45;;;24.80;99.90;;;;;;5069056;28;20031;-77
2021/08/29 17:58:26;;;;;;;17.38;13.73;;;24.80;99.90;;;;;;5070306;28;20086;-79
2021/08/29 18:00:52;;;;;;;20.30;15.52;;;24.90;99.90;;;;;;5070334;28;20032;-78
2021/08/29 18:03:18;;;;;;;14.25;11.32;;;24.80;99.90;;;;;;5069099;28;20021;-79
2021/08/29 18:05:44;;;;;;;15.98;10.70;;;24.90;99.90;;;;;;5068776;28;20535;-80
2021/08/29 18:08:11;;;;;;;15.05;10.65;;;24.80;99.90;;;;;;5069041;28;20049;-77
2021/08/29 18:10:37;;;;;;;12.52;10.23;;;24.80;99.90;;;;;;5070321;28;20064;-78
2021/08/29 18:13:03;;;;;;;12.48;10.48;;;24.80;99.90;;;;;;5070003;28;20028;-78
2021/08/29 18:15:29;;;;;;;15.10;9.80;;;24.80;99.90;;;;;;5070115;28;20024;-78
2021/08/29 18:17:55;;;;;;;15.18;9.65;;;24.80;99.80;;;;;;5069784;28;20089;-78
2021/08/29 18:20:21;;;;;;;16.33;9.70;;;24.80;99.50;;;;;;5069872;28;20074;-78
2021/08/29 18:22:47;;;;;;;14.60;9.30;;;24.90;98.90;;;;;;5068475;28;20119;-80
2021/08/29 18:25:14;;;;;;;11.88;9.57;;;24.90;98.50;;;;;;5070050;28;20025;-78
2021/08/29 18:27:42;;;;;;;14.20;9.40;;;24.90;98.40;;;;;;5069914;28;20100;-78
2021/08/29 18:31:01;;;;;;;20.42;9.63;;;24.90;97.80;;;;;;5111369;27;20377;-79
2021/08/29 18:33:27;;;;;;;12.45;8.50;;;24.90;98.00;;;;;;5111468;28;20427;-78
2021/08/29 18:35:52;;;;;;;13.20;9.57;;;24.90;97.80;;;;;;5111358;28;20019;-78
2021/08/29 18:38:18;;;;;;;16.80;9.68;;;24.90;97.70;;;;;;5111051;28;20053;-79
2021/08/29 18:40:44;;;;;;;14.85;9.55;;;25.00;97.70;;;;;;5111047;28;20032;-78
2021/08/29 18:43:10;;;;;;;16.15;9.70;;;25.00;97.80;;;;;;5110625;28;20023;-79
2021/08/29 18:45:36;;;;;;;27.20;21.70;;;24.90;97.80;;;;;;5110975;28;20044;-79
2021/08/29 18:48:02;;;;;;;13.27;11.52;;;25.00;98.00;;;;;;5110818;28;20051;-78
2021/08/29 18:50:28;;;;;;;15.50;13.55;;;25.00;98.10;;;;;;5110837;28;20039;-84
2021/08/29 18:52:54;;;;;;;14.45;11.73;;;25.00;98.10;;;;;;5111168;28;20024;-81
2021/08/29 18:55:19;;;;;;;21.50;12.35;;;25.00;98.20;;;;;;5110738;28;20382;-76
2021/08/29 18:57:45;;;;;;;37.53;30.88;;;25.00;98.30;;;;;;5110874;28;20068;-78
2021/08/29 19:00:12;;;;;;;39.45;31.73;;;25.00;98.30;;;;;;5110786;28;20020;-76
2021/08/29 19:02:37;;;;;;;16.10;13.18;;;25.00;98.20;;;;;;5109679;28;20054;-80
2021/08/29 19:05:04;;;;;;;14.15;10.20;;;25.00;98.50;;;;;;5109617;28;20024;-80
2021/08/29 19:07:30;;;;;;;17.65;9.90;;;25.00;98.50;;;;;;5110489;28;20425;-80
2021/08/29 19:09:56;;;;;;;12.98;9.45;;;25.00;98.50;;;;;;5110510;28;20107;-80
2021/08/29 19:12:22;;;;;;;12.02;9.77;;;24.90;98.30;;;;;;5110157;28;20484;-81
2021/08/29 19:14:48;;;;;;;11.80;9.45;;;24.90;98.50;;;;;;5107474;28;20031;-80
2021/08/29 19:17:13;;;;;;;13.02;9.07;;;24.90;98.10;;;;;;5109695;28;20024;-79
2021/08/29 19:19:39;;;;;;;17.20;9.93;;;24.80;98.20;;;;;;5109503;28;20031;-79
2021/08/29 19:22:06;;;;;;;16.48;9.80;;;24.80;98.10;;;;;;5109554;28;20439;-79
2021/08/29 19:24:31;;;;;;;13.90;9.52;;;24.70;98.20;;;;;;5109517;28;20073;-80
2021/08/29 19:26:57;;;;;;;13.07;9.20;;;24.60;98.10;;;;;;5109319;28;20028;-79
2021/08/29 19:29:23;;;;;;;13.52;9.25;;;24.60;98.10;;;;;;5109211;28;20135;-80
2021/08/29 19:31:49;;;;;;;12.65;9.50;;;24.50;98.10;;;;;;5109555;28;20091;-80
2021/08/29 19:34:14;;;;;;;17.58;9.60;;;24.50;98.20;;;;;;5109463;28;20030;-80
2021/08/29 19:36:40;;;;;;;15.18;9.90;;;24.50;98.10;;;;;;5109334;28;20020;-82
2021/08/29 19:39:06;;;;;;;16.60;9.45;;;24.50;98.00;;;;;;5109294;28;20023;-80
2021/08/29 19:41:32;;;;;;;15.90;9.52;;;24.50;98.10;;;;;;5100302;28;20032;-82
2021/08/29 19:43:57;;;;;;;14.80;9.63;;;24.50;98.20;;;;;;5095447;28;20052;-83
2021/08/29 19:46:23;;;;;;;24.48;10.20;;;24.50;98.40;;;;;;5095529;28;20062;-81
2021/08/29 19:48:48;;;;;;;12.82;9.02;;;24.50;98.50;;;;;;5095342;28;20039;-83
2021/08/29 19:51:14;;;;;;;17.92;14.40;;;24.50;98.70;;;;;;5095522;28;20068;-83
2021/08/29 19:53:40;;;;;;;21.10;15.90;;;24.60;98.80;;;;;;5094143;28;20032;-79
2021/08/29 19:56:06;;;;;;;15.07;10.60;;;24.60;98.80;;;;;;5095437;28;20020;-82
2021/08/29 19:58:31;;;;;;;12.02;9.68;;;24.60;98.70;;;;;;5095290;28;20028;-80
2021/08/29 20:00:57;;;;;;;11.13;9.50;;;24.60;98.50;;;;;;5111141;28;20039;-83
2021/08/29 20:03:23;;;;;;;14.68;10.18;;;24.60;98.30;;;;;;5095065;28;20027;-83
2021/08/29 20:05:48;;;;;;;14.95;10.20;;;24.60;98.00;;;;;;5093803;28;20020;-81
2021/08/29 20:08:14;;;;;;;14.77;9.85;;;24.60;97.70;;;;;;5095375;28;20038;-84
2021/08/29 20:10:39;;;;;;;13.93;8.75;;;24.60;97.20;;;;;;5094972;28;20466;-84
2021/08/29 20:13:07;;;;;;;14.73;9.07;;;24.60;97.10;;;;;;5093725;28;20048;-81
2021/08/29 20:15:32;;;;;;;13.13;8.85;;;24.60;96.90;;;;;;5093184;28;20023;-82
2021/08/29 20:17:59;;;;;;;16.15;8.90;;;24.60;96.90;;;;;;5094975;28;20016;-81
2021/08/29 20:20:30;;;;;;;16.90;9.48;;;24.60;97.00;;;;;;5094961;28;20422;-81
2021/08/29 20:22:56;;;;;;;14.68;8.93;;;24.60;97.20;;;;;;5094005;28;20031;-81
2021/08/29 20:25:22;;;;;;;15.68;8.80;;;24.60;97.30;;;;;;5093857;28;20028;-82
2021/08/29 20:27:48;;;;;;;17.80;9.63;;;24.60;97.50;;;;;;5093821;28;20020;-81
2021/08/29 20:30:14;;;;;;;13.82;9.68;;;24.60;97.30;;;;;;5093638;28;20052;-80
2021/08/29 20:32:40;;;;;;;14.45;9.20;;;24.60;97.30;;;;;;5092509;28;20474;-82
2021/08/29 20:35:06;;;;;;;14.57;9.45;;;24.60;97.30;;;;;;5093751;28;20024;-80
2021/08/29 20:37:32;;;;;;;12.57;9.18;;;24.60;97.30;;;;;;5093693;28;20442;-81
2021/08/29 20:39:58;;;;;;;15.00;10.57;;;24.60;97.60;;;;;;5092918;28;20055;-81
2021/08/29 20:42:24;;;;;;;18.38;10.52;;;24.60;97.40;;;;;;5094079;28;20107;-82
2021/08/29 20:44:50;;;;;;;15.82;9.70;;;24.60;97.40;;;;;;5094413;28;20021;-81
2021/08/29 20:47:16;;;;;;;15.68;9.82;;;24.60;97.50;;;;;;5094390;28;20031;-80
2021/08/29 20:49:41;;;;;;;18.88;10.35;;;24.60;97.50;;;;;;5094054;28;20107;-83
2021/08/29 20:52:07;;;;;;;18.38;10.48;;;24.60;97.60;;;;;;5093488;28;20028;-82
2021/08/29 20:54:33;;;;;;;12.60;9.95;;;24.60;97.80;;;;;;5093367;28;20146;-81
2021/08/29 20:56:58;;;;;;;17.25;10.82;;;24.50;98.00;;;;;;5093931;28;20035;-81
2021/08/29 20:59:24;;;;;;;17.55;11.43;;;24.50;98.20;;;;;;5093820;28;20103;-81
2021/08/29 21:01:50;;;;;;;15.45;10.57;;;24.50;98.60;;;;;;5093826;28;20024;-81
2021/08/29 21:04:15;;;;;;;16.50;10.65;;;24.40;98.80;;;;;;5092692;28;20363;-81
2021/08/29 21:06:41;;;;;;;17.90;11.45;;;24.50;99.00;;;;;;5093904;28;20020;-81
2021/08/29 21:09:07;;;;;;;20.77;10.68;;;24.40;99.10;;;;;;5093785;28;20027;-81
2021/08/29 21:11:32;;;;;;;19.08;10.75;;;24.40;99.00;;;;;;5094119;28;20024;-80
2021/08/29 21:13:58;;;;;;;14.55;10.32;;;24.30;98.80;;;;;;5094200;28;20488;-82
2021/08/29 21:16:24;;;;;;;17.70;10.93;;;24.40;98.90;;;;;;5093994;28;20485;-80
2021/08/29 21:18:50;;;;;;;15.00;10.43;;;24.30;98.60;;;;;;5094049;28;20385;-86
2021/08/29 21:21:15;;;;;;;15.43;10.23;;;24.30;98.50;;;;;;5094083;28;20099;-81
2021/08/29 21:23:41;;;;;;;18.25;10.32;;;24.20;98.50;;;;;;5092647;28;20494;-81
2021/08/29 21:26:07;;;;;;;15.32;10.18;;;24.20;98.50;;;;;;5093974;28;20531;-81
2021/08/29 21:28:32;;;;;;;14.85;10.15;;;24.20;98.60;;;;;;5094018;28;20095;-82
2021/08/29 21:30:58;;;;;;;15.02;10.07;;;24.10;98.60;;;;;;5092432;28;20068;-81
2021/08/29 21:33:24;;;;;;;15.20;10.32;;;24.10;98.60;;;;;;5093927;28;20024;-81
2021/08/29 21:35:50;;;;;;;13.48;10.20;;;24.10;98.60;;;;;;5092769;28;20462;-81
2021/08/29 21:38:15;;;;;;;19.30;10.55;;;24.10;98.50;;;;;;5093860;28;20378;-82
2021/08/29 21:40:42;;;;;;;21.77;11.15;;;24.10;98.50;;;;;;5094170;28;20424;-81
2021/08/29 21:43:08;;;;;;;14.45;10.10;;;24.10;98.40;;;;;;5093914;28;20134;-81
2021/08/29 21:45:34;;;;;;;13.60;10.27;;;24.10;98.30;;;;;;5093822;28;20107;-81
2021/08/29 21:48:00;;;;;;;21.35;10.82;;;24.20;98.30;;;;;;5093827;28;20020;-82
2021/08/29 21:50:26;;;;;;;16.40;10.18;;;24.20;98.20;;;;;;5093582;28;20028;-81
2021/08/29 21:52:52;;;;;;;16.02;10.25;;;24.20;98.10;;;;;;5093792;28;20020;-84
2021/08/29 21:55:22;;;;;;;16.23;10.27;;;24.20;98.10;;;;;;5093629;28;20024;-81
2021/08/29 21:57:51;;;;;;;14.27;10.10;;;24.20;97.80;;;;;;5092476;28;20595;-81
2021/08/29 22:00:20;;;;;;;15.30;10.25;;;24.30;97.80;;;;;;5093573;28;20027;-82
2021/08/29 22:02:47;;;;;;;12.33;9.43;;;24.20;97.80;;;;;;5093902;28;20107;-82
2021/08/29 22:05:13;;;;;;;18.90;11.13;;;24.20;97.70;;;;;;5093328;28;20335;-80
2021/08/29 22:07:39;;;;;;;15.57;10.05;;;24.20;97.70;;;;;;5093972;28;20103;-81
2021/08/29 22:10:06;;;;;;;14.02;9.93;;;24.20;97.70;;;;;;5093462;28;20051;-81
2021/08/29 22:12:33;;;;;;;18.10;9.82;;;24.20;97.70;;;;;;5093806;28;20048;-80
2021/08/29 22:14:59;;;;;;;21.48;11.75;;;24.10;97.90;;;;;;5092382;28;20065;-81
2021/08/29 22:17:25;;;;;;;15.20;10.75;;;24.00;98.00;;;;;;5093980;28;20431;-81
2021/08/29 22:19:50;;;;;;;20.30;10.98;;;24.00;98.10;;;;;;5093624;28;20059;-80
2021/08/29 22:22:17;;;;;;;14.85;10.77;;;23.90;98.10;;;;;;5093668;28;20020;-79
2021/08/29 22:24:42;;;;;;;16.30;11.10;;;23.90;98.20;;;;;;5093644;28;20063;-81
2021/08/29 22:27:09;;;;;;;18.38;11.75;;;23.90;98.30;;;;;;5093496;28;20378;-81
2021/08/29 22:29:34;;;;;;;16.08;11.50;;;23.80;98.40;;;;;;5093096;28;20071;-81
2021/08/29 22:32:00;;;;;;;16.80;11.05;;;23.70;98.50;;;;;;5093448;28;20470;-81
2021/08/29 22:34:26;;;;;;;16.88;10.38;;;23.70;98.60;;;;;;5093141;28;20027;-84
2021/08/29 22:36:52;;;;;;;15.05;10.98;;;23.70;98.80;;;;;;5092036;28;20027;-82
2021/08/29 22:39:22;;;;;;;16.52;11.10;;;23.70;98.80;;;;;;5093442;28;20024;-82
2021/08/29 22:41:51;;;;;;;19.58;11.32;;;23.60;98.80;;;;;;5093323;28;20113;-81
2021/08/29 22:44:17;;;;;;;19.38;11.48;;;23.60;98.90;;;;;;5091957;28;20038;-81
2021/08/29 22:46:43;;;;;;;19.92;11.07;;;23.60;99.00;;;;;;5091764;28;20070;-81
2021/08/29 22:49:08;;;;;;;15.02;11.85;;;23.60;99.20;;;;;;5093070;28;20028;-82
2021/08/29 22:51:34;;;;;;;20.67;11.23;;;23.60;99.30;;;;;;5093083;28;20431;-82
2021/08/29 22:54:00;;;;;;;19.30;11.65;;;23.50;99.40;;;;;;5093090;28;20031;-81
2021/08/29 22:56:26;;;;;;;19.83;12.48;;;23.50;99.60;;;;;;5093119;28;20027;-81
2021/08/29 22:58:52;;;;;;;19.60;11.48;;;23.50;99.70;;;;;;5091210;28;20024;-81
2021/08/29 23:01:17;;;;;;;17.30;11.82;;;23.50;99.80;;;;;;5093031;28;20028;-81
2021/08/29 23:03:43;;;;;;;22.88;11.55;;;23.50;99.90;;;;;;5093073;28;20112;-81
2021/08/29 23:06:08;;;;;;;16.02;11.98;;;23.40;99.90;;;;;;5093209;28;20035;-82
2021/08/29 23:08:34;;;;;;;16.45;11.10;;;23.40;99.90;;;;;;5092902;28;20024;-80
2021/08/29 23:11:00;;;;;;;13.90;11.50;;;23.40;99.90;;;;;;5093048;28;20024;-81
2021/08/29 23:13:25;;;;;;;17.65;12.70;;;23.40;99.90;;;;;;5093019;28;20055;-81
2021/08/29 23:15:51;;;;;;;15.38;11.93;;;23.40;99.90;;;;;;5093397;28;20031;-82
2021/08/29 23:18:17;;;;;;;18.17;12.35;;;23.30;99.90;;;;;;5095171;28;20028;-81
2021/08/29 23:20:44;;;;;;;19.10;11.60;;;23.30;99.90;;;;;;5096832;28;20031;-81
2021/08/29 23:23:10;;;;;;;22.63;13.07;;;23.30;99.90;;;;;;5096544;28;20020;-81
2021/08/29 23:25:36;;;;;;;19.85;11.82;;;23.20;99.90;;;;;;5096988;28;20115;-81
2021/08/29 23:28:02;;;;;;;18.13;11.70;;;23.20;99.90;;;;;;5096835;28;20036;-81
2021/08/29 23:30:28;;;;;;;17.38;12.77;;;23.20;99.90;;;;;;5096162;28;20440;-81
2021/08/29 23:32:53;;;;;;;18.45;12.43;;;23.10;99.90;;;;;;5096767;28;20016;-81
2021/08/29 23:35:19;;;;;;;19.17;13.27;;;23.10;99.90;;;;;;5095183;28;20024;-82
2021/08/29 23:37:45;;;;;;;17.20;12.73;;;23.10;99.90;;;;;;5096663;28;20020;-81